sensor_id;sensor_type;location;lat;lon;timestamp;pressure;altitude;pressure_sealevel;temperature;humidity
14041;BME280;7095;51.388;6.196;2023-10-09T00:00:08;107961.72;;;-145.32;100.00
14041;BME280;7095;51.388;6.196;2023-10-09T00:02:50;107961.72;;;-145.32;100.00
14041;BME280;7095;51.388;6.196;2023-10-09T00:05:19;107703.22;;;-145.32;100.00
14041;BME280;7095;51.388;6.196;2023-10-09T00:08:06;107444.69;;;-145.32;100.00
14041;BME280;7095;51.388;6.196;2023-10-09T00:10:36;107444.69;;;-145.32;100.00
14041;BME280;7095;51.388;6.196;2023-10-09T00:13:15;105894.09;;;-145.32;100.00
14041;BME280;7095;51.388;6.196;2023-10-09T00:15:45;105377.34;;;-145.32;100.00
14041;BME280;7095;51.388;6.196;2023-10-09T00:18:19;108220.28;;;-145.32;100.00
14041;BME280;7095;51.388;6.196;2023-10-09T00:20:56;108220.28;;;-145.32;100.00
14041;BME280;7095;51.388;6.196;2023-10-09T00:23:40;108737.41;;;-145.32;100.00
14041;BME280;7095;51.388;6.196;2023-10-09T00:26:09;108996.00;;;-145.32;100.00
14041;BME280;7095;51.388;6.196;2023-10-09T00:28:49;108737.41;;;-145.32;100.00
14041;BME280;7095;51.388;6.196;2023-10-09T00:31:20;108737.41;;;-145.32;100.00
14041;BME280;7095;51.388;6.196;2023-10-09T00:33:57;108737.41;;;-145.32;100.00
14041;BME280;7095;51.388;6.196;2023-10-09T00:36:34;108737.41;;;-145.32;100.00
14041;BME280;7095;51.388;6.196;2023-10-09T00:39:19;108737.41;;;-145.32;100.00
14041;BME280;7095;51.388;6.196;2023-10-09T00:42:08;108996.00;;;-145.32;100.00
14041;BME280;7095;51.388;6.196;2023-10-09T00:44:40;109513.28;;;-145.32;100.00
14041;BME280;7095;51.388;6.196;2023-10-09T00:47:11;109513.28;;;-145.32;100.00
14041;BME280;7095;51.388;6.196;2023-10-09T00:49:56;108996.00;;;-145.32;100.00
14041;BME280;7095;51.388;6.196;2023-10-09T00:52:31;108737.41;;;-145.32;100.00
14041;BME280;7095;51.388;6.196;2023-10-09T00:55:04;108478.84;;;-145.32;100.00
14041;BME280;7095;51.388;6.196;2023-10-09T00:57:42;108220.28;;;-145.32;100.00
14041;BME280;7095;51.388;6.196;2023-10-09T01:00:17;108478.84;;;-145.32;100.00
14041;BME280;7095;51.388;6.196;2023-10-09T01:03:00;108478.84;;;-145.32;100.00
14041;BME280;7095;51.388;6.196;2023-10-09T01:05:48;108737.41;;;-145.32;100.00
14041;BME280;7095;51.388;6.196;2023-10-09T01:08:24;108996.00;;;-145.32;100.00
14041;BME280;7095;51.388;6.196;2023-10-09T01:10:58;108996.00;;;-145.32;100.00
14041;BME280;7095;51.388;6.196;2023-10-09T01:13:37;108996.00;;;-145.32;100.00
14041;BME280;7095;51.388;6.196;2023-10-09T01:16:21;108996.00;;;-145.32;100.00
14041;BME280;7095;51.388;6.196;2023-10-09T01:18:51;108996.00;;;-145.32;100.00
14041;BME280;7095;51.388;6.196;2023-10-09T01:21:21;108996.00;;;-145.32;100.00
14041;BME280;7095;51.388;6.196;2023-10-09T01:23:54;108737.41;;;-145.32;100.00
14041;BME280;7095;51.388;6.196;2023-10-09T01:26:33;108737.41;;;-145.32;100.00
14041;BME280;7095;51.388;6.196;2023-10-09T01:29:07;108737.41;;;-145.32;100.00
14041;BME280;7095;51.388;6.196;2023-10-09T01:31:38;108737.41;;;-145.32;100.00
14041;BME280;7095;51.388;6.196;2023-10-09T01:34:12;108478.84;;;-145.32;100.00
14041;BME280;7095;51.388;6.196;2023-10-09T01:36:42;108220.28;;;-145.32;100.00
14041;BME280;7095;51.388;6.196;2023-10-09T01:39:12;107961.72;;;-145.32;100.00
14041;BME280;7095;51.388;6.196;2023-10-09T01:41:51;107703.22;;;-145.32;100.00
14041;BME280;7095;51.388;6.196;2023-10-09T01:44:26;107703.22;;;-145.32;100.00
14041;BME280;7095;51.388;6.196;2023-10-09T01:46:57;107703.22;;;-145.32;100.00
14041;BME280;7095;51.388;6.196;2023-10-09T01:49:26;107703.22;;;-145.32;100.00
14041;BME280;7095;51.388;6.196;2023-10-09T01:51:58;107444.69;;;-145.32;100.00
14041;BME280;7095;51.388;6.196;2023-10-09T01:54:36;107186.22;;;-145.32;100.00
14041;BME280;7095;51.388;6.196;2023-10-09T01:57:05;107186.22;;;-145.32;100.00
14041;BME280;7095;51.388;6.196;2023-10-09T01:59:37;106927.75;;;-145.32;100.00
14041;BME280;7095;51.388;6.196;2023-10-09T02:02:11;106669.31;;;-145.32;100.00
14041;BME280;7095;51.388;6.196;2023-10-09T02:04:54;106927.75;;;-145.32;100.00
14041;BME280;7095;51.388;6.196;2023-10-09T02:07:34;106669.31;;;-145.32;100.00
14041;BME280;7095;51.388;6.196;2023-10-09T02:10:11;106410.88;;;-145.32;100.00
14041;BME280;7095;51.388;6.196;2023-10-09T02:12:49;106410.88;;;-145.32;100.00
14041;BME280;7095;51.388;6.196;2023-10-09T02:15:26;106152.47;;;-145.32;100.00
14041;BME280;7095;51.388;6.196;2023-10-09T02:18:20;105635.72;;;-145.32;100.00
14041;BME280;7095;51.388;6.196;2023-10-09T02:21:06;105119.03;;;-145.32;100.00
14041;BME280;7095;51.388;6.196;2023-10-09T02:23:41;104860.72;;;-145.32;100.00
14041;BME280;7095;51.388;6.196;2023-10-09T02:26:16;104344.16;;;-145.32;100.00
14041;BME280;7095;51.388;6.196;2023-10-09T02:28:47;104344.16;;;-145.32;100.00
14041;BME280;7095;51.388;6.196;2023-10-09T02:31:27;103827.66;;;-145.32;100.00
14041;BME280;7095;51.388;6.196;2023-10-09T02:34:03;103569.44;;;-145.32;100.00
14041;BME280;7095;51.388;6.196;2023-10-09T02:36:39;103311.25;;;-145.32;100.00
14041;BME280;7095;51.388;6.196;2023-10-09T02:39:10;103311.25;;;-145.32;100.00
14041;BME280;7095;51.388;6.196;2023-10-09T02:41:53;103311.25;;;-145.32;100.00
14041;BME280;7095;51.388;6.196;2023-10-09T02:44:25;103053.06;;;-145.32;100.00
14041;BME280;7095;51.388;6.196;2023-10-09T02:46:57;102794.91;;;-145.32;100.00
14041;BME280;7095;51.388;6.196;2023-10-09T02:49:26;102536.75;;;-145.32;100.00
14041;BME280;7095;51.388;6.196;2023-10-09T02:51:55;102278.66;;;-145.32;100.00
14041;BME280;7095;51.388;6.196;2023-10-09T02:54:24;102278.66;;;-145.32;100.00
14041;BME280;7095;51.388;6.196;2023-10-09T02:57:04;102278.66;;;-145.32;100.00
14041;BME280;7095;51.388;6.196;2023-10-09T02:59:43;102020.53;;;-145.32;100.00
14041;BME280;7095;51.388;6.196;2023-10-09T03:02:12;101762.47;;;-145.32;100.00
14041;BME280;7095;51.388;6.196;2023-10-09T03:04:40;101762.47;;;-145.32;100.00
14041;BME280;7095;51.388;6.196;2023-10-09T03:07:09;101504.38;;;-145.32;100.00
14041;BME280;7095;51.388;6.196;2023-10-09T03:09:41;100988.31;;;-145.32;100.00
14041;BME280;7095;51.388;6.196;2023-10-09T03:12:10;100730.31;;;-145.32;100.00
14041;BME280;7095;51.388;6.196;2023-10-09T03:14:40;100472.31;;;-145.32;100.00
14041;BME280;7095;51.388;6.196;2023-10-09T03:17:09;100214.34;;;-145.32;100.00
14041;BME280;7095;51.388;6.196;2023-10-09T03:19:41;99698.47;;;-145.32;100.00
14041;BME280;7095;51.388;6.196;2023-10-09T03:22:10;99440.56;;;-145.32;100.00
14041;BME280;7095;51.388;6.196;2023-10-09T03:24:40;99182.69;;;-145.32;100.00
14041;BME280;7095;51.388;6.196;2023-10-09T03:27:16;99182.69;;;-145.32;100.00
14041;BME280;7095;51.388;6.196;2023-10-09T03:29:45;98666.94;;;-145.32;100.00
14041;BME280;7095;51.388;6.196;2023-10-09T03:32:17;98666.94;;;-145.32;100.00
14041;BME280;7095;51.388;6.196;2023-10-09T03:34:47;98151.31;;;-145.32;100.00
14041;BME280;7095;51.388;6.196;2023-10-09T03:37:18;97893.50;;;-145.32;100.00
14041;BME280;7095;51.388;6.196;2023-10-09T03:40:01;97635.72;;;-145.32;100.00
14041;BME280;7095;51.388;6.196;2023-10-09T03:42:31;97635.72;;;-145.32;100.00
14041;BME280;7095;51.388;6.196;2023-10-09T03:45:04;97120.22;;;-145.32;100.00
14041;BME280;7095;51.388;6.196;2023-10-09T03:47:40;96862.50;;;-145.32;100.00
14041;BME280;7095;51.388;6.196;2023-10-09T03:50:10;96604.81;;;-145.32;100.00
14041;BME280;7095;51.388;6.196;2023-10-09T03:52:54;96604.81;;;-145.32;100.00
14041;BME280;7095;51.388;6.196;2023-10-09T03:55:22;96604.81;;;-145.32;100.00
14041;BME280;7095;51.388;6.196;2023-10-09T03:57:56;96604.81;;;-145.32;100.00
14041;BME280;7095;51.388;6.196;2023-10-09T04:00:28;96604.81;;;-145.32;100.00
14041;BME280;7095;51.388;6.196;2023-10-09T04:02:57;96604.81;;;-145.32;100.00
14041;BME280;7095;51.388;6.196;2023-10-09T04:05:26;96347.13;;;-145.32;100.00
14041;BME280;7095;51.388;6.196;2023-10-09T04:07:55;96347.13;;;-145.32;100.00
14041;BME280;7095;51.388;6.196;2023-10-09T04:10:26;96347.13;;;-145.32;100.00
14041;BME280;7095;51.388;6.196;2023-10-09T04:13:24;96089.47;;;-145.32;100.00
14041;BME280;7095;51.388;6.196;2023-10-09T04:16:01;96089.47;;;-145.32;100.00
14041;BME280;7095;51.388;6.196;2023-10-09T04:18:51;96089.47;;;-145.32;100.00
14041;BME280;7095;51.388;6.196;2023-10-09T04:21:22;96089.47;;;-145.32;100.00
14041;BME280;7095;51.388;6.196;2023-10-09T04:24:02;96089.47;;;-145.32;100.00
14041;BME280;7095;51.388;6.196;2023-10-09T04:26:48;95831.81;;;-145.32;100.00
14041;BME280;7095;51.388;6.196;2023-10-09T04:29:26;95831.81;;;-145.32;100.00
14041;BME280;7095;51.388;6.196;2023-10-09T04:31:55;95831.81;;;-145.32;100.00
14041;BME280;7095;51.388;6.196;2023-10-09T04:34:26;95316.59;;;-145.32;100.00
14041;BME280;7095;51.388;6.196;2023-10-09T04:37:02;95059.00;;;-145.32;100.00
14041;BME280;7095;51.388;6.196;2023-10-09T04:39:46;94286.38;;;-145.32;100.00
14041;BME280;7095;51.388;6.196;2023-10-09T04:42:16;93771.38;;;-145.32;100.00
14041;BME280;7095;51.388;6.196;2023-10-09T04:44:55;93771.38;;;-145.32;100.00
14041;BME280;7095;51.388;6.196;2023-10-09T04:47:47;92999.00;;;-145.32;100.00
14041;BME280;7095;51.388;6.196;2023-10-09T04:50:25;92741.59;;;-145.32;100.00
14041;BME280;7095;51.388;6.196;2023-10-09T04:53:07;92484.19;;;-145.32;100.00
14041;BME280;7095;51.388;6.196;2023-10-09T04:55:50;92226.81;;;-145.32;100.00
14041;BME280;7095;51.388;6.196;2023-10-09T04:58:32;92226.81;;;-145.32;100.00
14041;BME280;7095;51.388;6.196;2023-10-09T05:01:07;91712.13;;;-145.32;100.00
14041;BME280;7095;51.388;6.196;2023-10-09T05:03:50;91712.13;;;-145.32;100.00
14041;BME280;7095;51.388;6.196;2023-10-09T05:06:24;91454.81;;;-145.32;100.00
14041;BME280;7095;51.388;6.196;2023-10-09T05:09:10;91197.50;;;-145.32;100.00
14041;BME280;7095;51.388;6.196;2023-10-09T05:11:42;90940.22;;;-145.32;100.00
14041;BME280;7095;51.388;6.196;2023-10-09T05:14:36;90682.97;;;-145.32;100.00
14041;BME280;7095;51.388;6.196;2023-10-09T05:17:14;90425.72;;;-145.32;100.00
14041;BME280;7095;51.388;6.196;2023-10-09T05:19:52;90168.50;;;-145.32;100.00
14041;BME280;7095;51.388;6.196;2023-10-09T05:22:42;90168.50;;;-145.32;100.00
14041;BME280;7095;51.388;6.196;2023-10-09T05:25:25;90168.50;;;-145.32;100.00
14041;BME280;7095;51.388;6.196;2023-10-09T05:28:22;89654.13;;;-145.32;100.00
14041;BME280;7095;51.388;6.196;2023-10-09T05:30:52;89396.97;;;-145.32;100.00
14041;BME280;7095;51.388;6.196;2023-10-09T05:33:31;89396.97;;;-145.32;100.00
14041;BME280;7095;51.388;6.196;2023-10-09T05:36:02;89396.97;;;-145.32;100.00
14041;BME280;7095;51.388;6.196;2023-10-09T05:38:42;89654.13;;;-145.32;100.00
14041;BME280;7095;51.388;6.196;2023-10-09T05:41:13;89396.97;;;-145.32;100.00
14041;BME280;7095;51.388;6.196;2023-10-09T05:44:14;89654.13;;;-145.32;100.00
14041;BME280;7095;51.388;6.196;2023-10-09T05:47:01;89139.81;;;-145.32;100.00
14041;BME280;7095;51.388;6.196;2023-10-09T05:49:47;88882.69;;;-145.32;100.00
14041;BME280;7095;51.388;6.196;2023-10-09T05:52:29;88625.56;;;-145.32;100.00
14041;BME280;7095;51.388;6.196;2023-10-09T05:55:00;88368.50;;;-145.32;100.00
14041;BME280;7095;51.388;6.196;2023-10-09T05:57:46;87597.34;;;-145.32;100.00
14041;BME280;7095;51.388;6.196;2023-10-09T06:00:32;87597.34;;;-145.32;100.00
14041;BME280;7095;51.388;6.196;2023-10-09T06:03:18;87340.31;;;-145.32;100.00
14041;BME280;7095;51.388;6.196;2023-10-09T06:06:08;86826.34;;;-145.32;100.00
14041;BME280;7095;51.388;6.196;2023-10-09T06:08:45;86826.34;;;-145.32;100.00
14041;BME280;7095;51.388;6.196;2023-10-09T06:11:27;87083.34;;;-145.32;100.00
14041;BME280;7095;51.388;6.196;2023-10-09T06:14:16;87083.34;;;-145.32;100.00
14041;BME280;7095;51.388;6.196;2023-10-09T06:16:53;87340.31;;;-145.32;100.00
14041;BME280;7095;51.388;6.196;2023-10-09T06:19:28;87083.34;;;-145.32;100.00
14041;BME280;7095;51.388;6.196;2023-10-09T06:21:58;87083.34;;;-145.32;100.00
14041;BME280;7095;51.388;6.196;2023-10-09T06:24:57;87597.34;;;-145.32;100.00
14041;BME280;7095;51.388;6.196;2023-10-09T06:27:36;87340.31;;;-145.32;100.00
14041;BME280;7095;51.388;6.196;2023-10-09T06:30:18;86826.34;;;-145.32;100.00
14041;BME280;7095;51.388;6.196;2023-10-09T06:32:53;86569.41;;;-145.32;100.00
14041;BME280;7095;51.388;6.196;2023-10-09T06:35:47;86055.56;;;-145.32;100.00
14041;BME280;7095;51.388;6.196;2023-10-09T06:38:23;85798.66;;;-145.32;100.00
14041;BME280;7095;51.388;6.196;2023-10-09T06:40:51;86312.47;;;-145.32;100.00
14041;BME280;7095;51.388;6.196;2023-10-09T06:43:37;86312.47;;;-145.32;100.00
14041;BME280;7095;51.388;6.196;2023-10-09T06:46:15;86055.56;;;-145.32;100.00
14041;BME280;7095;51.388;6.196;2023-10-09T06:49:01;86055.56;;;-145.32;100.00
14041;BME280;7095;51.388;6.196;2023-10-09T06:51:52;85798.66;;;-145.32;100.00
14041;BME280;7095;51.388;6.196;2023-10-09T06:54:24;85798.66;;;-145.32;100.00
14041;BME280;7095;51.388;6.196;2023-10-09T06:57:04;85028.06;;;-145.32;100.00
14041;BME280;7095;51.388;6.196;2023-10-09T06:59:41;85028.06;;;-145.32;100.00
14041;BME280;7095;51.388;6.196;2023-10-09T07:02:26;84514.44;;;-145.32;100.00
14041;BME280;7095;51.388;6.196;2023-10-09T07:04:54;84514.44;;;-145.32;100.00
14041;BME280;7095;51.388;6.196;2023-10-09T07:07:22;84000.91;;;-145.32;100.00
14041;BME280;7095;51.388;6.196;2023-10-09T07:09:53;84000.91;;;-145.32;100.00
14041;BME280;7095;51.388;6.196;2023-10-09T07:12:39;83230.72;;;-145.32;100.00
14041;BME280;7095;51.388;6.196;2023-10-09T07:15:11;83744.16;;;-145.32;100.00
14041;BME280;7095;51.388;6.196;2023-10-09T07:17:57;82974.03;;;-145.32;100.00
14041;BME280;7095;51.388;6.196;2023-10-09T07:20:46;81947.50;;;-145.32;100.00
14041;BME280;7095;51.388;6.196;2023-10-09T07:23:27;82204.09;;;-145.32;100.00
14041;BME280;7095;51.388;6.196;2023-10-09T07:26:03;81434.31;;;-145.32;100.00
14041;BME280;7095;51.388;6.196;2023-10-09T07:28:50;81434.31;;;-145.32;100.00
14041;BME280;7095;51.388;6.196;2023-10-09T07:31:28;80664.72;;;-145.32;100.00
14041;BME280;7095;51.388;6.196;2023-10-09T07:34:07;80664.72;;;-145.32;100.00
14041;BME280;7095;51.388;6.196;2023-10-09T07:36:49;80921.25;;;-145.32;100.00
14041;BME280;7095;51.388;6.196;2023-10-09T07:39:23;80408.22;;;-145.32;100.00
14041;BME280;7095;51.388;6.196;2023-10-09T07:42:05;79895.28;;;-145.32;100.00
14041;BME280;7095;51.388;6.196;2023-10-09T07:44:56;79382.44;;;-145.32;100.00
14041;BME280;7095;51.388;6.196;2023-10-09T07:47:25;79382.44;;;-145.32;100.00
14041;BME280;7095;51.388;6.196;2023-10-09T07:50:28;78613.28;;;-145.32;100.00
14041;BME280;7095;51.388;6.196;2023-10-09T07:53:05;78356.94;;;-145.32;100.00
14041;BME280;7095;51.388;6.196;2023-10-09T07:55:45;77588.03;;;-145.32;100.00
14041;BME280;7095;51.388;6.196;2023-10-09T07:58:23;77844.31;;;-145.32;100.00
14041;BME280;7095;51.388;6.196;2023-10-09T08:00:53;75282.31;;;-145.32;100.00
14041;BME280;7095;51.388;6.196;2023-10-09T08:03:35;74002.03;;;-145.32;100.00
14041;BME280;7095;51.388;6.196;2023-10-09T08:06:05;75026.22;;;-145.32;100.00
14041;BME280;7095;51.388;6.196;2023-10-09T08:08:57;74002.03;;;-145.32;100.00
14041;BME280;7095;51.388;6.196;2023-10-09T08:11:55;74258.06;;;-145.32;100.00
14041;BME280;7095;51.388;6.196;2023-10-09T08:14:43;74258.06;;;-145.32;100.00
14041;BME280;7095;51.388;6.196;2023-10-09T08:17:12;74258.06;;;-145.32;100.00
14041;BME280;7095;51.388;6.196;2023-10-09T08:19:48;74258.06;;;-145.32;100.00
14041;BME280;7095;51.388;6.196;2023-10-09T08:22:21;72722.25;;;-145.32;100.00
14041;BME280;7095;51.388;6.196;2023-10-09T08:25:11;72722.25;;;-145.32;100.00
14041;BME280;7095;51.388;6.196;2023-10-09T08:27:54;72466.34;;;-145.32;100.00
14041;BME280;7095;51.388;6.196;2023-10-09T08:30:26;71934.59;;;-145.32;100.00
14041;BME280;7095;51.388;6.196;2023-10-09T08:33:08;71698.75;;;-145.32;100.00
14041;BME280;7095;51.388;6.196;2023-10-09T08:35:56;71954.59;;;-145.32;100.00
14041;BME280;7095;51.388;6.196;2023-10-09T08:38:33;71954.59;;;-145.32;100.00
14041;BME280;7095;51.388;6.196;2023-10-09T08:41:09;68686.00;;;-145.32;100.00
14041;BME280;7095;51.388;6.196;2023-10-09T08:43:48;69393.00;;;-145.32;100.00
14041;BME280;7095;51.388;6.196;2023-10-09T08:46:34;67741.59;;;-145.32;100.00
14041;BME280;7095;51.388;6.196;2023-10-09T08:49:04;69892.38;;;-145.32;100.00
14041;BME280;7095;51.388;6.196;2023-10-09T08:51:37;68981.56;;;-145.32;100.00
14041;BME280;7095;51.388;6.196;2023-10-09T08:54:07;68558.22;;;-145.32;100.00
14041;BME280;7095;51.388;6.196;2023-10-09T08:56:39;67587.84;;;-145.32;100.00
14041;BME280;7095;51.388;6.196;2023-10-09T08:59:17;66793.41;;;-145.32;100.00
14041;BME280;7095;51.388;6.196;2023-10-09T09:01:49;65777.69;;;-145.32;100.00
14041;BME280;7095;51.388;6.196;2023-10-09T09:04:36;64716.38;;;-145.32;100.00
14041;BME280;7095;51.388;6.196;2023-10-09T09:07:06;63980.44;;;-145.32;100.00
14041;BME280;7095;51.388;6.196;2023-10-09T09:09:55;63274.56;;;-145.32;100.00
14041;BME280;7095;51.388;6.196;2023-10-09T09:12:24;63129.00;;;-145.32;100.00
14041;BME280;7095;51.388;6.196;2023-10-09T09:14:57;61849.28;;;-145.32;100.00
14041;BME280;7095;51.388;6.196;2023-10-09T09:17:32;60815.09;;;-145.32;100.00
14041;BME280;7095;51.388;6.196;2023-10-09T09:20:19;59516.34;;;-145.32;100.00
14041;BME280;7095;51.388;6.196;2023-10-09T09:22:53;59293.28;;;-145.32;100.00
14041;BME280;7095;51.388;6.196;2023-10-09T09:25:24;59110.06;;;-145.32;100.00
14041;BME280;7095;51.388;6.196;2023-10-09T09:27:58;58590.38;;;-145.32;100.00
14041;BME280;7095;51.388;6.196;2023-10-09T09:30:36;58343.50;;;-145.32;100.00
14041;BME280;7095;51.388;6.196;2023-10-09T09:33:18;57696.50;;;-145.32;100.00
14041;BME280;7095;51.388;6.196;2023-10-09T09:35:58;57700.50;;;-145.32;100.00
14041;BME280;7095;51.388;6.196;2023-10-09T09:38:27;57171.06;;;-145.32;100.00
14041;BME280;7095;51.388;6.196;2023-10-09T09:40:56;57037.72;;;-145.32;100.00
14041;BME280;7095;51.388;6.196;2023-10-09T09:43:31;56872.53;;;-145.32;100.00
14041;BME280;7095;51.388;6.196;2023-10-09T09:46:03;56784.97;;;-145.32;100.00
14041;BME280;7095;51.388;6.196;2023-10-09T09:48:39;56450.66;;;-145.32;100.00
14041;BME280;7095;51.388;6.196;2023-10-09T09:51:12;56416.84;;;-145.32;100.00
14041;BME280;7095;51.388;6.196;2023-10-09T09:53:42;55993.06;;;-145.32;100.00
14041;BME280;7095;51.388;6.196;2023-10-09T09:56:15;55869.69;;;-145.32;100.00
14041;BME280;7095;51.388;6.196;2023-10-09T09:58:50;55702.59;;;-145.32;100.00
14041;BME280;7095;51.388;6.196;2023-10-09T10:01:24;55736.41;;;-145.32;100.00
14041;BME280;7095;51.388;6.196;2023-10-09T10:04:00;55565.31;;;-145.32;100.00
14041;BME280;7095;51.388;6.196;2023-10-09T10:06:31;55609.09;;;-145.32;100.00
14041;BME280;7095;51.388;6.196;2023-10-09T10:09:01;55527.53;;;-145.32;100.00
14041;BME280;7095;51.388;6.196;2023-10-09T10:11:44;55493.72;;;-145.32;100.00
14041;BME280;7095;51.388;6.196;2023-10-09T10:14:14;55422.09;;;-145.32;100.00
14041;BME280;7095;51.388;6.196;2023-10-09T10:17:00;55455.91;;;-145.32;100.00
14041;BME280;7095;51.388;6.196;2023-10-09T10:20:02;55432.06;;;-145.32;100.00
14041;BME280;7095;51.388;6.196;2023-10-09T10:23:16;55201.31;;;-145.32;100.00
14041;BME280;7095;51.388;6.196;2023-10-09T10:25:46;55193.34;;;-145.32;100.00
14041;BME280;7095;51.388;6.196;2023-10-09T10:28:19;55229.16;;;-145.32;100.00
14041;BME280;7095;51.388;6.196;2023-10-09T10:31:03;55151.59;;;-145.32;100.00
14041;BME280;7095;51.388;6.196;2023-10-09T10:36:41;54851.25;;;-145.32;100.00
14041;BME280;7095;51.388;6.196;2023-10-09T10:39:11;54978.53;;;-145.32;100.00
14041;BME280;7095;51.388;6.196;2023-10-09T10:41:55;54924.84;;;-145.32;100.00
14041;BME280;7095;51.388;6.196;2023-10-09T10:44:29;54980.53;;;-145.32;100.00
14041;BME280;7095;51.388;6.196;2023-10-09T10:47:10;54924.84;;;-145.32;100.00
14041;BME280;7095;51.388;6.196;2023-10-09T10:49:53;54855.22;;;-145.32;100.00
14041;BME280;7095;51.388;6.196;2023-10-09T10:52:28;54733.91;;;-145.32;100.00
14041;BME280;7095;51.388;6.196;2023-10-09T10:55:11;54763.75;;;-145.32;100.00
14041;BME280;7095;51.388;6.196;2023-10-09T10:57:59;54723.97;;;-145.32;100.00
14041;BME280;7095;51.388;6.196;2023-10-09T11:00:37;54769.72;;;-145.32;100.00
14041;BME280;7095;51.388;6.196;2023-10-09T11:03:24;54753.81;;;-145.32;100.00
14041;BME280;7095;51.388;6.196;2023-10-09T11:06:03;54690.16;;;-145.32;100.00
14041;BME280;7095;51.388;6.196;2023-10-09T11:08:45;54632.50;;;-145.32;100.00
14041;BME280;7095;51.388;6.196;2023-10-09T11:11:22;54634.47;;;-145.32;100.00
14041;BME280;7095;51.388;6.196;2023-10-09T11:14:08;54652.38;;;-145.32;100.00
14041;BME280;7095;51.388;6.196;2023-10-09T11:16:41;54632.50;;;-145.32;100.00
14041;BME280;7095;51.388;6.196;2023-10-09T11:19:11;54556.91;;;-145.32;100.00
14041;BME280;7095;51.388;6.196;2023-10-09T11:21:59;54461.47;;;-145.32;100.00
14041;BME280;7095;51.388;6.196;2023-10-09T11:24:43;54455.50;;;-145.32;100.00
14041;BME280;7095;51.388;6.196;2023-10-09T11:27:14;54477.38;;;-145.32;100.00
14041;BME280;7095;51.388;6.196;2023-10-09T11:29:51;54509.19;;;-145.32;100.00
14041;BME280;7095;51.388;6.196;2023-10-09T11:32:36;54475.38;;;-145.32;100.00
14041;BME280;7095;51.388;6.196;2023-10-09T11:35:10;54350.09;;;-145.32;100.00
14041;BME280;7095;51.388;6.196;2023-10-09T11:37:41;54282.50;;;-145.32;100.00
14041;BME280;7095;51.388;6.196;2023-10-09T11:40:31;54238.75;;;-145.32;100.00
14041;BME280;7095;51.388;6.196;2023-10-09T11:43:14;54244.72;;;-145.32;100.00
14041;BME280;7095;51.388;6.196;2023-10-09T11:45:43;54246.69;;;-145.32;100.00
14041;BME280;7095;51.388;6.196;2023-10-09T11:48:22;54139.31;;;-145.32;100.00
14041;BME280;7095;51.388;6.196;2023-10-09T11:50:52;54115.47;;;-145.32;100.00
14041;BME280;7095;51.388;6.196;2023-10-09T11:53:43;54117.44;;;-145.32;100.00
14041;BME280;7095;51.388;6.196;2023-10-09T11:56:13;54047.84;;;-145.32;100.00
14041;BME280;7095;51.388;6.196;2023-10-09T11:58:47;54053.81;;;-145.32;100.00
14041;BME280;7095;51.388;6.196;2023-10-09T12:01:17;54085.63;;;-145.32;100.00
14041;BME280;7095;51.388;6.196;2023-10-09T12:03:48;54027.97;;;-145.32;100.00
14041;BME280;7095;51.388;6.196;2023-10-09T12:06:19;53954.41;;;-145.32;100.00
14041;BME280;7095;51.388;6.196;2023-10-09T12:08:50;53946.44;;;-145.32;100.00
14041;BME280;7095;51.388;6.196;2023-10-09T12:11:22;53950.44;;;-145.32;100.00
14041;BME280;7095;51.388;6.196;2023-10-09T12:13:56;53928.56;;;-145.32;100.00
14041;BME280;7095;51.388;6.196;2023-10-09T12:16:28;53940.47;;;-145.32;100.00
14041;BME280;7095;51.388;6.196;2023-10-09T12:18:57;53940.47;;;-145.32;100.00
14041;BME280;7095;51.388;6.196;2023-10-09T12:21:26;53980.25;;;-145.32;100.00
14041;BME280;7095;51.388;6.196;2023-10-09T12:23:56;53970.31;;;-145.32;100.00
14041;BME280;7095;51.388;6.196;2023-10-09T12:26:29;53950.44;;;-145.32;100.00
14041;BME280;7095;51.388;6.196;2023-10-09T12:29:02;53906.69;;;-145.32;100.00
14041;BME280;7095;51.388;6.196;2023-10-09T12:31:38;53888.78;;;-145.32;100.00
14041;BME280;7095;51.388;6.196;2023-10-09T12:34:07;53942.47;;;-145.32;100.00
14041;BME280;7095;51.388;6.196;2023-10-09T12:36:35;53906.69;;;-145.32;100.00
14041;BME280;7095;51.388;6.196;2023-10-09T12:39:04;53882.81;;;-145.32;100.00
14041;BME280;7095;51.388;6.196;2023-10-09T12:41:35;53926.56;;;-145.32;100.00
14041;BME280;7095;51.388;6.196;2023-10-09T12:44:08;53966.34;;;-145.32;100.00
14041;BME280;7095;51.388;6.196;2023-10-09T12:46:42;53908.66;;;-145.32;100.00
14041;BME280;7095;51.388;6.196;2023-10-09T12:49:19;53940.47;;;-145.32;100.00
14041;BME280;7095;51.388;6.196;2023-10-09T12:51:53;53906.69;;;-145.32;100.00
14041;BME280;7095;51.388;6.196;2023-10-09T12:54:21;53932.53;;;-145.32;100.00
14041;BME280;7095;51.388;6.196;2023-10-09T12:56:56;53924.56;;;-145.32;100.00
14041;BME280;7095;51.388;6.196;2023-10-09T12:59:26;53912.66;;;-145.32;100.00
14041;BME280;7095;51.388;6.196;2023-10-09T13:01:54;53932.53;;;-145.32;100.00
14041;BME280;7095;51.388;6.196;2023-10-09T13:04:25;53946.44;;;-145.32;100.00
14041;BME280;7095;51.388;6.196;2023-10-09T13:06:59;53920.59;;;-145.32;100.00
14041;BME280;7095;51.388;6.196;2023-10-09T13:09:39;53916.63;;;-145.32;100.00
14041;BME280;7095;51.388;6.196;2023-10-09T13:12:37;53906.69;;;-145.32;100.00
14041;BME280;7095;51.388;6.196;2023-10-09T13:15:09;53916.63;;;-145.32;100.00
14041;BME280;7095;51.388;6.196;2023-10-09T13:17:38;53868.91;;;-145.32;100.00
14041;BME280;7095;51.388;6.196;2023-10-09T13:20:09;53864.94;;;-145.32;100.00
14041;BME280;7095;51.388;6.196;2023-10-09T13:22:42;53845.03;;;-145.32;100.00
14041;BME280;7095;51.388;6.196;2023-10-09T13:25:12;53795.34;;;-145.32;100.00
14041;BME280;7095;51.388;6.196;2023-10-09T13:28:02;53827.16;;;-145.32;100.00
14041;BME280;7095;51.388;6.196;2023-10-09T13:30:32;53803.28;;;-145.32;100.00